Terminal Aerodrome Forecast
Issued by NWS Rapid City, SD

Home | Current Version | Previous Version | Graphics & Text | Print | Product List | Glossary On
Versions: 1 2 3 4 5 6 7 8 9 10 11 12 13 14 15 16 17 18 19
000
FTUS43 KUNR 261700
TAFRAP
TAF
KRAP 261720Z 2618/2718 15005KT P6SM OVC015
      TEMPO 2618/2622 4SM -SN OVC012
     FM270600 15005KT P6SM OVC050=

USA.gov is the U.S. government's official web portal to all federal, state and local government web resources and services.